createdAt,value
2022-10-15T00:01:28.578Z,37.78
2022-10-15T00:03:56.717Z,36.53
2022-10-15T00:06:24.810Z,38.95
2022-10-15T00:08:52.705Z,43.10
2022-10-15T00:11:23.329Z,38.58
2022-10-15T00:13:54.910Z,40.08
2022-10-15T00:16:24.721Z,41.95
2022-10-15T00:18:53.245Z,40.95
2022-10-15T00:21:22.319Z,43.20
2022-10-15T00:23:50.808Z,39.13
2022-10-15T00:26:20.640Z,44.22
2022-10-15T00:28:50.245Z,46.33
2022-10-15T00:31:21.003Z,40.90
2022-10-15T00:33:51.105Z,43.13
2022-10-15T00:36:20.982Z,42.13
2022-10-15T00:38:49.164Z,39.28
2022-10-15T00:41:19.996Z,42.78
2022-10-15T00:43:49.941Z,39.13
2022-10-15T00:46:24.523Z,41.30
2022-10-15T00:48:58.030Z,42.58
2022-10-15T00:51:30.882Z,39.20
2022-10-15T00:53:58.853Z,44.65
2022-10-15T00:56:28.831Z,42.60
2022-10-15T00:58:57.819Z,41.05
2022-10-15T01:01:27.478Z,41.45
2022-10-15T01:03:57.064Z,44.42
2022-10-15T01:06:25.806Z,42.67
2022-10-15T01:08:53.901Z,43.40
2022-10-15T01:11:36.484Z,44.67
2022-10-15T01:14:13.921Z,39.67
2022-10-15T01:16:48.456Z,41.08
2022-10-15T01:19:40.993Z,42.25
2022-10-15T01:22:15.153Z,41.13
2022-10-15T01:25:02.977Z,45.65
2022-10-15T01:27:37.306Z,46.00
2022-10-15T01:30:30.364Z,48.03
2022-10-15T01:33:25.353Z,43.10
2022-10-15T01:35:55.703Z,44.90
2022-10-15T01:38:37.509Z,45.13
2022-10-15T01:41:10.905Z,45.83
2022-10-15T01:43:45.841Z,46.45
2022-10-15T01:46:20.156Z,45.50
2022-10-15T01:48:49.115Z,46.53
2022-10-15T01:51:20.054Z,49.15
2022-10-15T01:53:49.895Z,47.97
2022-10-15T01:56:22.289Z,47.10
2022-10-15T01:58:53.858Z,43.55
2022-10-15T02:01:23.699Z,42.85
2022-10-15T02:03:53.362Z,48.20
2022-10-15T02:06:26.312Z,48.67
2022-10-15T02:09:13.410Z,44.97
2022-10-15T02:11:52.250Z,43.10
2022-10-15T02:14:29.529Z,44.33
2022-10-15T02:17:05.029Z,43.83
2022-10-15T02:19:39.791Z,44.50
2022-10-15T02:22:12.885Z,45.20
2022-10-15T02:24:45.244Z,43.65
2022-10-15T02:27:15.302Z,41.75
2022-10-15T02:29:44.973Z,43.97
2022-10-15T02:32:16.423Z,45.85
2022-10-15T02:34:47.190Z,41.08
2022-10-15T02:37:16.665Z,43.13
2022-10-15T02:39:45.301Z,45.60
2022-10-15T02:42:13.341Z,44.30
2022-10-15T02:44:41.253Z,42.25
2022-10-15T02:47:09.876Z,45.05
2022-10-15T02:49:39.147Z,41.85
2022-10-15T02:52:07.296Z,41.38
2022-10-15T02:54:35.265Z,43.00
2022-10-15T02:57:03.186Z,41.80
2022-10-15T02:59:31.073Z,42.43
2022-10-15T03:01:59.027Z,44.50
2022-10-15T03:04:26.940Z,44.33
2022-10-15T03:06:56.236Z,41.45
2022-10-15T03:09:24.309Z,44.22
2022-10-15T03:11:52.248Z,40.03
2022-10-15T03:14:20.197Z,44.70
2022-10-15T03:16:48.153Z,43.00
2022-10-15T03:19:16.041Z,41.35
2022-10-15T03:21:43.986Z,40.25
2022-10-15T03:24:13.249Z,38.28
2022-10-15T03:26:41.224Z,35.53
2022-10-15T03:29:09.173Z,37.53
2022-10-15T03:31:37.433Z,37.23
2022-10-15T03:34:05.302Z,41.30
2022-10-15T03:36:33.158Z,37.85
2022-10-15T03:39:01.048Z,47.03
2022-10-15T03:41:30.349Z,36.50
2022-10-15T03:44:02.811Z,38.38
2022-10-15T03:46:30.837Z,38.10
2022-10-15T03:48:58.747Z,39.67
2022-10-15T03:51:29.353Z,39.22
2022-10-15T03:53:59.468Z,36.20
2022-10-15T03:56:27.409Z,35.58
2022-10-15T03:58:56.649Z,35.65
2022-10-15T04:01:24.597Z,42.38
2022-10-15T04:03:53.672Z,36.58
2022-10-15T04:06:21.664Z,39.53
2022-10-15T04:08:49.616Z,37.08
2022-10-15T04:11:17.509Z,38.87
2022-10-15T04:13:48.926Z,41.55
2022-10-15T04:16:18.755Z,42.43
2022-10-15T04:18:46.678Z,38.55
2022-10-15T04:21:14.573Z,39.60
2022-10-15T04:23:42.468Z,38.80
2022-10-15T04:26:10.466Z,41.55
2022-10-15T04:28:38.420Z,41.55
2022-10-15T04:31:06.552Z,44.40
2022-10-15T04:33:35.893Z,41.60
2022-10-15T04:36:06.441Z,42.75
2022-10-15T04:38:34.442Z,41.35
2022-10-15T04:41:05.235Z,41.67
2022-10-15T04:43:33.220Z,38.35
2022-10-15T04:46:02.524Z,41.30
2022-10-15T04:48:31.971Z,39.25
2022-10-15T04:51:06.406Z,41.05
2022-10-15T04:53:34.851Z,39.93
2022-10-15T04:56:21.095Z,40.24
2022-10-15T04:58:50.359Z,44.47
2022-10-15T05:01:21.099Z,41.28
2022-10-15T05:03:50.279Z,39.92
2022-10-15T05:06:21.633Z,40.17
2022-10-15T05:08:50.533Z,47.42
2022-10-15T05:11:20.914Z,47.10
2022-10-15T05:13:49.199Z,44.92
2022-10-15T05:16:19.182Z,41.97
2022-10-15T05:18:49.400Z,44.00
2022-10-15T05:21:19.456Z,43.28
2022-10-15T05:23:50.055Z,48.10
2022-10-15T05:26:19.923Z,44.85
2022-10-15T05:28:48.033Z,43.78
2022-10-15T05:31:19.248Z,42.20
2022-10-15T05:33:47.911Z,48.25
2022-10-15T05:36:18.297Z,47.23
2022-10-15T05:38:48.616Z,44.10
2022-10-15T05:41:17.193Z,45.35
2022-10-15T05:43:47.104Z,47.35
2022-10-15T05:46:15.008Z,44.63
2022-10-15T05:48:43.051Z,45.17
2022-10-15T05:51:13.668Z,43.70
2022-10-15T05:53:43.188Z,47.03
2022-10-15T05:56:12.621Z,45.35
2022-10-15T05:58:40.656Z,50.15
2022-10-15T06:01:10.733Z,44.60
2022-10-15T06:03:39.031Z,43.03
2022-10-15T06:06:13.902Z,48.65
2022-10-15T06:08:41.830Z,45.10
2022-10-15T06:11:09.994Z,48.03
2022-10-15T06:13:40.585Z,42.05
2022-10-15T06:16:08.845Z,47.60
2022-10-15T06:18:37.421Z,49.20
2022-10-15T06:21:06.245Z,42.58
2022-10-15T06:23:34.333Z,45.65
2022-10-15T06:26:04.387Z,44.47
2022-10-15T06:28:32.401Z,44.35
2022-10-15T06:31:02.329Z,46.47
2022-10-15T06:33:30.619Z,38.93
2022-10-15T06:36:03.292Z,40.17
2022-10-15T06:38:31.902Z,43.45
2022-10-15T06:41:00.041Z,37.60
2022-10-15T06:43:29.885Z,41.10
2022-10-15T06:46:02.139Z,39.72
2022-10-15T06:48:30.027Z,42.28
2022-10-15T06:50:59.349Z,44.35
2022-10-15T06:53:27.404Z,44.25
2022-10-15T06:55:57.963Z,49.78
2022-10-15T06:58:25.993Z,54.20
2022-10-15T07:00:54.008Z,59.80
2022-10-15T07:03:23.270Z,58.75
2022-10-15T07:05:51.188Z,59.50
2022-10-15T07:08:19.447Z,66.57
2022-10-15T07:10:48.501Z,65.13
2022-10-15T07:13:16.530Z,66.70
2022-10-15T07:15:46.249Z,62.67
2022-10-15T07:18:14.163Z,64.00
2022-10-15T07:20:43.510Z,68.30
2022-10-15T07:23:11.374Z,66.00
2022-10-15T07:25:39.863Z,61.38
2022-10-15T07:28:07.797Z,70.22
2022-10-15T07:30:35.687Z,78.43
2022-10-15T07:33:03.596Z,71.97
2022-10-15T07:35:31.702Z,77.28
2022-10-15T07:38:02.937Z,79.45
2022-10-15T07:40:31.294Z,79.50
2022-10-15T07:43:00.252Z,85.60
2022-10-15T07:45:28.901Z,82.10
2022-10-15T07:47:56.782Z,82.93
2022-10-15T07:50:24.793Z,79.50
2022-10-15T07:52:52.979Z,77.80
2022-10-15T07:55:22.217Z,71.78
2022-10-15T07:57:50.146Z,64.13
2022-10-15T08:00:18.238Z,63.50
2022-10-15T08:02:47.007Z,58.97
2022-10-15T08:05:14.956Z,59.50
2022-10-15T08:07:42.891Z,46.92
2022-10-15T08:10:11.938Z,51.13
2022-10-15T08:12:41.293Z,47.58
2022-10-15T08:15:09.895Z,46.30
2022-10-15T08:17:37.770Z,43.77
2022-10-15T08:20:06.830Z,42.72
2022-10-15T08:22:34.761Z,40.45
2022-10-15T08:25:02.753Z,37.33
2022-10-15T08:27:30.914Z,40.85
2022-10-15T08:30:00.190Z,37.58
2022-10-15T08:32:28.163Z,34.90
2022-10-15T08:34:56.038Z,34.55
2022-10-15T08:37:23.935Z,35.10
2022-10-15T08:39:51.843Z,33.15
2022-10-15T08:42:24.057Z,35.85
2022-10-15T08:44:57.698Z,31.35
2022-10-15T08:47:35.565Z,28.88
2022-10-15T08:50:17.631Z,28.73
2022-10-15T08:52:47.980Z,28.65
2022-10-15T08:55:18.401Z,28.60
2022-10-15T08:57:54.179Z,28.37
2022-10-15T09:00:23.949Z,27.17
2022-10-15T09:03:01.446Z,27.75
2022-10-15T09:05:41.414Z,25.67
2022-10-15T09:08:21.722Z,26.08
2022-10-15T09:10:53.102Z,23.98
2022-10-15T09:13:27.863Z,25.95
2022-10-15T09:16:01.204Z,25.35
2022-10-15T09:18:34.458Z,21.38
2022-10-15T09:21:05.558Z,21.63
2022-10-15T09:23:35.456Z,22.80
2022-10-15T09:26:09.783Z,23.38
2022-10-15T09:28:44.595Z,21.57
2022-10-15T09:31:18.003Z,22.88
2022-10-15T09:33:51.804Z,22.67
2022-10-15T09:36:35.178Z,25.02
2022-10-15T09:39:15.446Z,26.10
2022-10-15T09:41:54.173Z,22.60
2022-10-15T09:44:25.462Z,21.92
2022-10-15T09:46:53.594Z,24.75
2022-10-15T09:49:28.551Z,19.73
2022-10-15T09:52:04.875Z,22.02
2022-10-15T09:54:43.174Z,19.23
2022-10-15T09:57:13.882Z,22.25
2022-10-15T09:59:54.182Z,22.35
2022-10-15T10:02:23.864Z,23.98
2022-10-15T10:04:53.977Z,21.35
2022-10-15T10:07:33.438Z,21.88
2022-10-15T10:10:05.548Z,24.25
2022-10-15T10:12:36.053Z,23.05
2022-10-15T10:15:06.875Z,19.42
2022-10-15T10:17:34.817Z,22.42
2022-10-15T10:20:16.059Z,23.80
2022-10-15T10:22:49.027Z,23.50
2022-10-15T10:25:34.848Z,21.10
2022-10-15T10:28:15.101Z,18.58
2022-10-15T10:30:52.694Z,20.17
2022-10-15T10:33:28.404Z,20.15
2022-10-15T10:35:58.684Z,17.58
2022-10-15T10:38:30.002Z,19.73
2022-10-15T10:41:05.198Z,17.95
2022-10-15T10:43:39.074Z,19.45
2022-10-15T10:46:19.216Z,16.75
2022-10-15T10:48:48.801Z,15.13
2022-10-15T10:51:20.574Z,15.98
2022-10-15T10:53:50.671Z,15.40
2022-10-15T10:56:22.666Z,22.48
2022-10-15T10:58:56.885Z,18.38
2022-10-15T11:01:24.913Z,15.13
2022-10-15T11:03:53.152Z,15.75
2022-10-15T11:06:41.856Z,16.48
2022-10-15T11:09:23.341Z,10.75
2022-10-15T11:12:02.749Z,12.80
2022-10-15T11:14:42.126Z,14.82
2022-10-15T11:17:18.724Z,11.40
2022-10-15T11:20:21.440Z,11.60
2022-10-15T11:22:54.655Z,10.90
2022-10-15T11:25:32.425Z,11.10
2022-10-15T11:28:15.238Z,10.10
2022-10-15T11:30:50.484Z,10.77
2022-10-15T11:33:36.829Z,9.90
2022-10-15T11:36:20.568Z,9.32
2022-10-15T11:38:58.026Z,9.63
2022-10-15T11:41:37.526Z,8.82
2022-10-15T11:44:29.858Z,9.35
2022-10-15T11:47:13.248Z,12.05
2022-10-15T11:49:51.031Z,8.80
2022-10-15T11:52:37.633Z,9.30
2022-10-15T11:55:13.265Z,8.68
2022-10-15T11:57:42.272Z,8.90
2022-10-15T12:00:27.159Z,9.45
2022-10-15T12:02:56.067Z,9.23
2022-10-15T12:05:30.863Z,8.50
2022-10-15T12:07:59.447Z,9.95
2022-10-15T12:10:49.361Z,9.52
2022-10-15T12:13:24.596Z,8.73
2022-10-15T12:16:04.616Z,8.48
2022-10-15T12:18:38.022Z,8.75
2022-10-15T12:21:33.565Z,9.30
2022-10-15T12:24:01.865Z,9.75
2022-10-15T12:26:33.495Z,11.48
2022-10-15T12:29:03.681Z,10.20
2022-10-15T12:31:50.739Z,9.75
2022-10-15T12:34:29.561Z,10.07
2022-10-15T12:37:05.895Z,10.00
2022-10-15T12:39:51.163Z,10.35
2022-10-15T12:42:27.387Z,9.82
2022-10-15T12:44:57.103Z,9.55
2022-10-15T12:47:47.250Z,9.10
2022-10-15T12:50:20.357Z,8.90
2022-10-15T12:53:00.242Z,8.10
2022-10-15T12:55:32.268Z,7.18
2022-10-15T12:58:06.703Z,7.97
2022-10-15T13:00:43.443Z,6.95
2022-10-15T13:03:36.486Z,6.85
2022-10-15T13:06:26.850Z,6.72
2022-10-15T13:08:58.113Z,5.50
2022-10-15T13:11:29.501Z,5.03
2022-10-15T13:14:02.071Z,5.00
2022-10-15T13:16:31.301Z,4.65
2022-10-15T13:19:00.331Z,6.15
2022-10-15T13:21:50.910Z,4.40
2022-10-15T13:24:21.113Z,3.33
2022-10-15T13:26:49.478Z,3.70
2022-10-15T13:29:20.270Z,3.15
2022-10-15T13:31:48.490Z,2.90
2022-10-15T13:34:25.471Z,2.87
2022-10-15T13:36:54.697Z,3.40
2022-10-15T13:39:29.494Z,2.70
2022-10-15T13:42:17.714Z,2.20
2022-10-15T13:45:00.262Z,1.90
2022-10-15T13:47:34.269Z,2.35
2022-10-15T13:50:18.428Z,2.13
2022-10-15T13:52:50.382Z,2.63
2022-10-15T13:55:24.038Z,1.00
2022-10-15T13:57:57.065Z,3.40
2022-10-15T14:00:32.610Z,1.45
2022-10-15T14:03:25.414Z,3.50
2022-10-15T14:05:55.148Z,2.10
2022-10-15T14:08:26.136Z,2.20
2022-10-15T14:10:56.378Z,3.28
2022-10-15T14:13:24.341Z,2.72
2022-10-15T14:18:38.772Z,2.90
2022-10-15T14:21:13.298Z,1.40
2022-10-15T14:23:42.986Z,4.55
2022-10-15T14:26:11.749Z,2.45
2022-10-15T14:28:41.248Z,3.35
2022-10-15T14:31:24.502Z,3.08
2022-10-15T14:33:52.384Z,5.10
2022-10-15T14:36:26.125Z,5.67
2022-10-15T14:38:54.454Z,3.95
2022-10-15T14:41:29.281Z,2.80
2022-10-15T14:44:06.693Z,2.92
2022-10-15T14:46:41.297Z,2.70
2022-10-15T14:49:23.005Z,3.58
2022-10-15T14:52:04.548Z,2.43
2022-10-15T14:54:46.899Z,3.95
2022-10-15T14:57:25.107Z,8.27
2022-10-15T14:59:54.443Z,3.85
2022-10-15T15:02:26.012Z,4.30
2022-10-15T15:05:08.545Z,3.87
2022-10-15T15:07:36.428Z,3.00
2022-10-15T15:10:06.841Z,1.83
2022-10-15T15:12:35.558Z,3.28
2022-10-15T15:15:03.532Z,2.42
2022-10-15T15:17:31.660Z,5.90
2022-10-15T15:19:59.692Z,5.72
2022-10-15T15:22:30.685Z,2.55
2022-10-15T15:25:00.797Z,2.92
2022-10-15T15:27:33.457Z,3.63
2022-10-15T15:30:01.420Z,3.45
2022-10-15T15:32:29.358Z,3.80
2022-10-15T15:34:58.888Z,3.95
2022-10-15T15:37:29.224Z,5.18
2022-10-15T15:39:57.121Z,3.70
2022-10-15T15:42:26.600Z,4.60
2022-10-15T15:44:56.074Z,3.78
2022-10-15T15:47:24.023Z,4.10
2022-10-15T15:49:51.989Z,3.55
2022-10-15T15:52:19.865Z,2.67
2022-10-15T15:54:48.119Z,4.07
2022-10-15T15:57:16.484Z,3.58
2022-10-15T15:59:44.390Z,3.85
2022-10-15T16:02:14.500Z,1.10
2022-10-15T16:04:42.360Z,1.75
2022-10-15T16:07:13.216Z,2.47
2022-10-15T16:09:41.704Z,2.10
2022-10-15T16:12:09.760Z,5.50
2022-10-15T16:14:37.653Z,4.50
2022-10-15T16:17:05.570Z,4.45
2022-10-15T16:19:34.865Z,3.30
2022-10-15T16:22:02.784Z,4.10
2022-10-15T16:24:30.721Z,5.43
2022-10-15T16:26:58.659Z,3.90
2022-10-15T16:29:26.680Z,7.68
2022-10-15T16:31:54.642Z,5.97
2022-10-15T16:34:22.509Z,9.15
2022-10-15T16:36:51.838Z,9.88
2022-10-15T16:39:19.798Z,3.92
2022-10-15T16:41:47.806Z,6.57
2022-10-15T16:44:15.773Z,5.00
2022-10-15T16:46:44.684Z,7.95
2022-10-15T16:49:12.593Z,6.70
2022-10-15T16:51:43.560Z,6.45
2022-10-15T16:54:15.546Z,7.47
2022-10-15T16:56:46.079Z,4.20
2022-10-15T16:59:16.953Z,5.50
2022-10-15T17:01:44.908Z,7.97
2022-10-15T17:04:12.857Z,5.05
2022-10-15T17:06:40.765Z,7.88
2022-10-15T17:09:09.033Z,6.63
2022-10-15T17:11:40.786Z,5.30
2022-10-15T17:14:10.523Z,7.97
2022-10-15T17:16:40.200Z,5.80
2022-10-15T17:19:08.466Z,4.47
2022-10-15T17:21:36.998Z,11.75
2022-10-15T17:24:07.848Z,10.70
2022-10-15T17:26:40.453Z,8.85
2022-10-15T17:29:10.068Z,9.97
2022-10-15T17:31:38.497Z,5.25
2022-10-15T17:34:09.027Z,7.68
2022-10-15T17:36:42.765Z,7.70
2022-10-15T17:39:12.021Z,7.15
2022-10-15T17:41:41.402Z,11.90
2022-10-15T17:44:11.110Z,7.30
2022-10-15T17:46:39.501Z,11.95
2022-10-15T17:49:07.963Z,7.63
2022-10-15T17:51:36.190Z,8.23
2022-10-15T17:54:04.738Z,8.20
2022-10-15T17:56:34.053Z,8.82
2022-10-15T17:59:06.419Z,8.63
2022-10-15T18:04:23.821Z,13.38
2022-10-15T18:06:52.215Z,7.22
2022-10-15T18:09:20.643Z,13.25
2022-10-15T18:11:49.057Z,8.43
2022-10-15T18:14:18.495Z,12.93
2022-10-15T18:16:46.407Z,7.68
2022-10-15T18:19:14.387Z,8.03
2022-10-15T18:21:46.894Z,11.10
2022-10-15T18:24:19.943Z,5.07
2022-10-15T18:26:48.054Z,7.22
2022-10-15T18:29:16.254Z,13.30
2022-10-15T18:31:46.635Z,11.57
2022-10-15T18:34:14.587Z,10.00
2022-10-15T18:36:43.566Z,7.97
2022-10-15T18:39:11.907Z,8.25
2022-10-15T18:41:41.048Z,9.23
2022-10-15T18:44:14.697Z,10.73
2022-10-15T18:46:44.770Z,6.57
2022-10-15T18:49:16.742Z,12.15
2022-10-15T18:51:46.563Z,4.47
2022-10-15T18:54:14.699Z,5.78
2022-10-15T18:56:42.596Z,7.47
2022-10-15T18:59:10.760Z,8.23
2022-10-15T19:01:41.693Z,9.65
2022-10-15T19:04:11.703Z,7.28
2022-10-15T19:06:42.818Z,7.28
2022-10-15T19:09:13.653Z,4.18
2022-10-15T19:11:43.718Z,12.73
2022-10-15T19:14:11.884Z,5.55
2022-10-15T19:16:39.866Z,5.47
2022-10-15T19:19:07.785Z,12.23
2022-10-15T19:21:37.705Z,7.88
2022-10-15T19:24:07.490Z,5.80
2022-10-15T19:26:35.602Z,7.03
2022-10-15T19:29:04.330Z,4.68
2022-10-15T19:31:35.103Z,7.88
2022-10-15T19:34:03.275Z,8.07
2022-10-15T19:36:33.505Z,6.03
2022-10-15T19:39:02.660Z,4.68
2022-10-15T19:41:32.251Z,6.68
2022-10-15T19:44:00.238Z,4.82
2022-10-15T19:46:29.221Z,5.60
2022-10-15T19:48:57.429Z,3.88
2022-10-15T19:51:25.328Z,4.68
2022-10-15T19:53:54.335Z,6.55
2022-10-15T19:56:22.217Z,5.50
2022-10-15T19:58:55.786Z,5.40
2022-10-15T20:01:23.723Z,7.32
2022-10-15T20:03:52.098Z,6.87
2022-10-15T20:06:20.732Z,4.25
2022-10-15T20:08:49.061Z,5.97
2022-10-15T20:11:18.940Z,5.75
2022-10-15T20:13:47.440Z,5.90
2022-10-15T20:16:18.494Z,9.68
2022-10-15T20:18:48.897Z,5.90
2022-10-15T20:21:17.415Z,5.70
2022-10-15T20:23:47.723Z,5.03
2022-10-15T20:26:16.689Z,5.40
2022-10-15T20:28:45.749Z,5.57
2022-10-15T20:31:16.285Z,3.67
2022-10-15T20:33:45.612Z,3.63
2022-10-15T20:36:17.136Z,4.22
2022-10-15T20:38:47.901Z,7.68
2022-10-15T20:41:17.721Z,6.90
2022-10-15T20:43:47.084Z,5.90
2022-10-15T20:46:21.797Z,4.10
2022-10-15T20:48:51.482Z,2.47
2022-10-15T20:51:23.337Z,5.15
2022-10-15T20:53:54.164Z,3.03
2022-10-15T20:56:22.017Z,5.28
2022-10-15T20:58:49.930Z,5.15
2022-10-15T21:01:17.941Z,5.75
2022-10-15T21:03:45.858Z,3.60
2022-10-15T21:06:15.086Z,5.32
2022-10-15T21:08:42.992Z,3.10
2022-10-15T21:11:10.930Z,3.58
2022-10-15T21:13:38.874Z,4.17
2022-10-15T21:16:08.271Z,10.25
2022-10-15T21:18:37.604Z,3.30
2022-10-15T21:21:07.282Z,8.70
2022-10-15T21:23:37.795Z,3.80
2022-10-15T21:26:06.863Z,6.13
2022-10-15T21:28:35.254Z,3.00
2022-10-15T21:31:05.674Z,5.17
2022-10-15T21:33:33.759Z,2.83
2022-10-15T21:36:10.904Z,4.70
2022-10-15T21:38:40.278Z,7.70
2022-10-15T21:41:08.250Z,4.82
2022-10-15T21:43:36.653Z,6.33
2022-10-15T21:46:06.266Z,4.05
2022-10-15T21:48:34.250Z,3.28
2022-10-15T21:51:02.127Z,4.75
2022-10-15T21:53:30.050Z,4.75
2022-10-15T21:55:59.282Z,5.95
2022-10-15T21:58:27.185Z,4.50
2022-10-15T22:00:55.086Z,4.50
2022-10-15T22:03:23.454Z,4.18
2022-10-15T22:05:51.648Z,2.58
2022-10-15T22:08:19.540Z,5.70
2022-10-15T22:10:47.425Z,3.80
2022-10-15T22:13:16.653Z,2.10
2022-10-15T22:15:44.536Z,3.78
2022-10-15T22:18:12.563Z,7.15
2022-10-15T22:23:09.327Z,4.32
2022-10-15T22:25:37.559Z,3.30
2022-10-15T22:28:05.991Z,4.07
2022-10-15T22:30:38.147Z,4.00
2022-10-15T22:33:06.036Z,3.03
2022-10-15T22:35:34.213Z,3.50
2022-10-15T22:38:02.277Z,2.05
2022-10-15T22:40:30.219Z,3.37
2022-10-15T22:42:58.206Z,2.38
2022-10-15T22:45:26.091Z,2.20
2022-10-15T22:47:55.370Z,3.50
2022-10-15T22:50:23.642Z,4.80
2022-10-15T22:52:51.574Z,3.83
2022-10-15T22:55:19.454Z,3.83
2022-10-15T22:57:47.327Z,2.20
2022-10-15T23:00:16.035Z,1.65
2022-10-15T23:02:43.941Z,3.70
2022-10-15T23:05:13.187Z,6.40
2022-10-15T23:07:43.085Z,3.15
2022-10-15T23:10:11.754Z,2.42
2022-10-15T23:12:39.656Z,4.00
2022-10-15T23:15:08.463Z,6.30
2022-10-15T23:17:36.343Z,3.70
2022-10-15T23:20:04.467Z,2.55
2022-10-15T23:22:33.731Z,6.18
2022-10-15T23:25:02.826Z,4.05
2022-10-15T23:27:30.719Z,1.77
2022-10-15T23:30:14.063Z,3.15
2022-10-15T23:32:46.465Z,6.50
2022-10-15T23:35:14.549Z,5.40
2022-10-15T23:37:44.041Z,2.92
2022-10-15T23:40:12.520Z,2.72
2022-10-15T23:42:40.471Z,2.67
2022-10-15T23:45:08.802Z,2.30
2022-10-15T23:47:36.689Z,3.30
2022-10-15T23:50:04.950Z,3.42
2022-10-15T23:52:32.890Z,5.50
2022-10-15T23:55:02.323Z,3.28
2022-10-15T23:57:30.369Z,4.70
2022-10-15T23:59:58.824Z,5.07
